Terminal Aerodrome Forecast
Issued by NWS

Home | Current Version | Previous Version | Text Only | Print | Product List | Glossary On
Versions: 1 2 3 4 5 6 7 8 9 10 11 12 13
347
FTPA31 PHFO 202337
TAFHOG
TAF
PHOG 202337Z 2100/2124 05025G33KT P6SM VCSH FEW035 SCT050
     FM210500 06013G23KT P6SM VCSH FEW030 SCT050
      AMD LTD TO VIS AND WIND 2109/2116=

USA.gov is the U.S. government's official web portal to all federal, state and local government web resources and services.